PWSweather.com
Personal Weather Stations
Station Observations
INEWSOUT98
ArmidaleAU 2350

ArmidaleAU 2350

Lat: -30.517, Lon: 151.656

Elevation: 3265

Station Type: CampbellSci

http://www.armidaleweather.com

High Low Average
Temperature 65.7°F18.7°C 53.8°F12.1°C 59.3°F15.2°C
Dew Point 55.7°F13.2°C 53.7°F12.1°C 54.8°F12.7°C
Winds 6.9 mph 11.1 kmh 0.4 mph 0.6 kmh 4.0 mph E6.4 kmh E
Wind Gusts 15.0 mph24.1 kmh 2.2 mph3.5 kmh 8.0 mph12.9 kmh
Humidity 100% 69% 86%
Pressure 30.07 in1018.3 mb 29.98 in1015.2 mb -
Precipitation 0.23 in5.8 mm - -
Hour Temp Dew Point Humidity Winds Wind Gusts Pressure Precip Precip Rate Daily Precip Total
12:00 AM 59.0°F15.0°C 58.2°F14.6°C 97% 5.2 mph SE8.4 kmh SE 11.2 mph18.0 kmh 29.95 in1014.2 mb 0.00 in0.0 mm 0.00 in0.0 mm 0.00 in0.0 mm
12:15 AM 58.8°F14.9°C 58.0°F14.4°C 97% 4.5 mph ESE7.2 kmh ESE 8.9 mph14.3 kmh 29.95 in1014.2 mb 0.00 in0.0 mm 0.00 in0.0 mm 0.00 in0.0 mm
12:30 AM 58.5°F14.7°C 57.6°F14.2°C 97% 4.9 mph E7.9 kmh E 9.6 mph15.4 kmh 29.95 in1014.2 mb 0.00 in0.0 mm 0.00 in0.0 mm 0.00 in0.0 mm
12:45 AM 58.3°F14.6°C 57.4°F14.1°C 97% 3.8 mph E6.1 kmh E 8.3 mph13.4 kmh 29.95 in1014.2 mb 0.00 in0.0 mm 0.00 in0.0 mm 0.00 in0.0 mm
01:00 AM 57.9°F14.4°C 57.1°F13.9°C 97% 3.2 mph E5.1 kmh E 7.8 mph12.6 kmh 29.95 in1014.2 mb 0.00 in0.0 mm 0.00 in0.0 mm 0.00 in0.0 mm
01:15 AM 57.6°F14.2°C 56.4°F13.6°C 96% 3.9 mph ESE6.3 kmh ESE 11.9 mph19.2 kmh 29.95 in1014.2 mb 0.00 in0.0 mm 0.00 in0.0 mm 0.00 in0.0 mm
01:30 AM 57.4°F14.1°C 56.5°F13.6°C 97% 5.0 mph ESE8.0 kmh ESE 11.0 mph17.7 kmh 29.95 in1014.2 mb 0.00 in0.0 mm 0.00 in0.0 mm 0.00 in0.0 mm
01:45 AM 57.2°F14.0°C 56.4°F13.6°C 97% 2.7 mph SE4.3 kmh SE 8.9 mph14.3 kmh 29.95 in1014.2 mb 0.00 in0.0 mm 0.00 in0.0 mm 0.00 in0.0 mm
02:00 AM 57.0°F13.9°C 55.9°F13.3°C 96% 4.4 mph ESE7.1 kmh ESE 9.2 mph14.8 kmh 29.95 in1014.2 mb 0.00 in0.0 mm 0.00 in0.0 mm 0.00 in0.0 mm
02:15 AM 56.8°F13.8°C 56.0°F13.3°C 97% 4.2 mph ESE6.8 kmh ESE 8.3 mph13.4 kmh 29.95 in1014.2 mb 0.00 in0.0 mm 0.00 in0.0 mm 0.00 in0.0 mm
02:30 AM 56.7°F13.7°C 55.8°F13.2°C 97% 3.2 mph ESE5.1 kmh ESE 10.3 mph16.6 kmh 29.95 in1014.2 mb 0.00 in0.0 mm 0.00 in0.0 mm 0.00 in0.0 mm
02:45 AM 56.5°F13.6°C 55.6°F13.1°C 97% 2.8 mph ENE4.5 kmh ENE 7.8 mph12.6 kmh 29.95 in1014.2 mb 0.00 in0.0 mm 0.00 in0.0 mm 0.00 in0.0 mm
03:00 AM 56.1°F13.4°C 55.0°F12.8°C 96% 3.6 mph ESE5.8 kmh ESE 9.2 mph14.8 kmh 29.95 in1014.2 mb 0.00 in0.0 mm 0.00 in0.0 mm 0.00 in0.0 mm
03:15 AM 55.8°F13.2°C 54.3°F12.4°C 95% 4.0 mph SE6.4 kmh SE 10.3 mph16.6 kmh 29.95 in1014.2 mb 0.00 in0.0 mm 0.00 in0.0 mm 0.00 in0.0 mm
03:30 AM 55.2°F12.9°C 53.8°F12.1°C 95% 3.8 mph SE6.1 kmh SE 9.6 mph15.4 kmh 29.95 in1014.2 mb 0.00 in0.0 mm 0.00 in0.0 mm 0.00 in0.0 mm
03:45 AM 55.0°F12.8°C 53.3°F11.8°C 94% 3.4 mph ESE5.5 kmh ESE 7.6 mph12.2 kmh 29.95 in1014.2 mb 0.00 in0.0 mm 0.00 in0.0 mm 0.00 in0.0 mm
04:00 AM 54.7°F12.6°C 53.0°F11.7°C 94% 3.2 mph ESE5.1 kmh ESE 8.5 mph13.7 kmh 29.95 in1014.2 mb 0.00 in0.0 mm 0.00 in0.0 mm 0.00 in0.0 mm
04:15 AM 54.5°F12.5°C 52.8°F11.6°C 94% 3.7 mph ESE6.0 kmh ESE 7.8 mph12.6 kmh 29.98 in1015.2 mb 0.00 in0.0 mm 0.00 in0.0 mm 0.00 in0.0 mm
04:30 AM 54.5°F12.5°C 52.8°F11.6°C 94% 4.3 mph ESE6.9 kmh ESE 8.9 mph14.3 kmh 29.98 in1015.2 mb 0.00 in0.0 mm 0.00 in0.0 mm 0.00 in0.0 mm
04:45 AM 54.3°F12.4°C 52.6°F11.4°C 94% 2.6 mph E4.2 kmh E 8.3 mph13.4 kmh 29.98 in1015.2 mb 0.00 in0.0 mm 0.00 in0.0 mm 0.00 in0.0 mm
05:00 AM 54.1°F12.3°C 52.5°F11.4°C 94% 3.7 mph SE6.0 kmh SE 6.9 mph11.1 kmh 29.98 in1015.2 mb 0.00 in0.0 mm 0.00 in0.0 mm 0.00 in0.0 mm
05:15 AM 54.0°F12.2°C 52.6°F11.4°C 95% 3.2 mph E5.1 kmh E 7.2 mph11.6 kmh 29.98 in1015.2 mb 0.00 in0.0 mm 0.00 in0.0 mm 0.00 in0.0 mm
05:30 AM 54.0°F12.2°C 52.8°F11.6°C 96% 2.3 mph ENE3.7 kmh ENE 4.9 mph7.9 kmh 29.98 in1015.2 mb 0.00 in0.0 mm 0.00 in0.0 mm 0.00 in0.0 mm
05:45 AM 54.0°F12.2°C 52.8°F11.6°C 96% 3.4 mph E5.5 kmh E 6.9 mph11.1 kmh 29.98 in1015.2 mb 0.00 in0.0 mm 0.00 in0.0 mm 0.00 in0.0 mm
06:00 AM 54.0°F12.2°C 52.8°F11.6°C 96% 2.2 mph E3.5 kmh E 4.5 mph7.2 kmh 29.98 in1015.2 mb 0.00 in0.0 mm 0.00 in0.0 mm 0.00 in0.0 mm
06:15 AM 54.0°F12.2°C 52.8°F11.6°C 96% 2.4 mph E3.9 kmh E 5.1 mph8.2 kmh 30.01 in1016.3 mb 0.00 in0.0 mm 0.00 in0.0 mm 0.00 in0.0 mm
06:30 AM 54.1°F12.3°C 52.7°F11.5°C 95% 3.2 mph SE5.1 kmh SE 7.8 mph12.6 kmh 30.01 in1016.3 mb 0.00 in0.0 mm 0.00 in0.0 mm 0.00 in0.0 mm
06:45 AM 54.1°F12.3°C 52.7°F11.5°C 95% 4.2 mph ESE6.8 kmh ESE 9.2 mph14.8 kmh 30.01 in1016.3 mb 0.00 in0.0 mm 0.00 in0.0 mm 0.00 in0.0 mm
07:00 AM 54.5°F12.5°C 53.1°F11.7°C 95% 3.4 mph E5.5 kmh E 8.3 mph13.4 kmh 30.01 in1016.3 mb 0.00 in0.0 mm 0.00 in0.0 mm 0.00 in0.0 mm
07:15 AM 55.2°F12.9°C 52.9°F11.6°C 92% 3.8 mph E6.1 kmh E 8.9 mph14.3 kmh 30.04 in1017.3 mb 0.00 in0.0 mm 0.00 in0.0 mm 0.00 in0.0 mm
07:30 AM 55.4°F13.0°C 52.5°F11.4°C 90% 4.2 mph ESE6.8 kmh ESE 9.6 mph15.4 kmh 30.04 in1017.3 mb 0.00 in0.0 mm 0.00 in0.0 mm 0.00 in0.0 mm
07:45 AM 55.6°F13.1°C 53.0°F11.7°C 91% 4.2 mph ESE6.8 kmh ESE 8.5 mph13.7 kmh 30.04 in1017.3 mb 0.00 in0.0 mm 0.00 in0.0 mm 0.00 in0.0 mm
08:00 AM 55.9°F13.3°C 53.0°F11.7°C 90% 5.1 mph E8.2 kmh E 8.5 mph13.7 kmh 30.04 in1017.3 mb 0.00 in0.0 mm 0.00 in0.0 mm 0.00 in0.0 mm
08:15 AM 56.1°F13.4°C 52.9°F11.6°C 89% 3.6 mph E5.8 kmh E 8.5 mph13.7 kmh 30.04 in1017.3 mb 0.00 in0.0 mm 0.00 in0.0 mm 0.00 in0.0 mm
08:30 AM 56.8°F13.8°C 53.6°F12.0°C 89% 5.2 mph E8.4 kmh E 9.8 mph15.8 kmh 30.04 in1017.3 mb 0.00 in0.0 mm 0.00 in0.0 mm 0.00 in0.0 mm
08:45 AM 57.7°F14.3°C 52.9°F11.6°C 84% 4.4 mph ESE7.1 kmh ESE 10.3 mph16.6 kmh 30.04 in1017.3 mb 0.00 in0.0 mm 0.00 in0.0 mm 0.00 in0.0 mm
09:00 AM 58.6°F14.8°C 53.8°F12.1°C 84% 5.2 mph SE8.4 kmh SE 8.5 mph13.7 kmh 30.04 in1017.3 mb 0.00 in0.0 mm 0.00 in0.0 mm 0.00 in0.0 mm
09:15 AM 59.4°F15.2°C 53.5°F11.9°C 81% 5.0 mph ESE8.0 kmh ESE 9.6 mph15.4 kmh 30.04 in1017.3 mb 0.00 in0.0 mm 0.00 in0.0 mm 0.00 in0.0 mm
09:30 AM 60.1°F15.6°C 54.2°F12.3°C 81% 4.9 mph SE7.9 kmh SE 11.0 mph17.7 kmh 30.04 in1017.3 mb 0.00 in0.0 mm 0.00 in0.0 mm 0.00 in0.0 mm
09:45 AM 60.6°F15.9°C 53.7°F12.1°C 78% 5.2 mph E8.4 kmh E 7.8 mph12.6 kmh 30.04 in1017.3 mb 0.00 in0.0 mm 0.00 in0.0 mm 0.00 in0.0 mm
10:00 AM 61.3°F16.3°C 54.1°F12.3°C 77% 3.8 mph E6.1 kmh E 8.9 mph14.3 kmh 30.04 in1017.3 mb 0.05 in1.3 mm 0.07 in1.8 mm 0.05 in1.3 mm
10:15 AM 61.9°F16.6°C 54.6°F12.6°C 77% 4.4 mph SE7.1 kmh SE 7.8 mph12.6 kmh 30.04 in1017.3 mb 0.05 in1.3 mm 0.00 in0.0 mm 0.05 in1.3 mm
10:30 AM 62.1°F16.7°C 53.7°F12.1°C 74% 5.3 mph E8.5 kmh E 11.6 mph18.7 kmh 30.04 in1017.3 mb 0.05 in1.3 mm 0.00 in0.0 mm 0.05 in1.3 mm
10:45 AM 62.8°F17.1°C 54.4°F12.4°C 74% 5.0 mph ESE8.0 kmh ESE 10.3 mph16.6 kmh 30.04 in1017.3 mb 0.05 in1.3 mm 0.00 in0.0 mm 0.05 in1.3 mm
11:00 AM 63.5°F17.5°C 55.4°F13.0°C 75% 4.6 mph SE7.4 kmh SE 8.5 mph13.7 kmh 30.04 in1017.3 mb 0.00 in0.0 mm 0.00 in0.0 mm 0.05 in1.3 mm
11:15 AM 64.2°F17.9°C 55.0°F12.8°C 72% 5.4 mph ESE8.7 kmh ESE 10.5 mph16.9 kmh 30.01 in1016.3 mb 0.00 in0.0 mm 0.00 in0.0 mm 0.05 in1.3 mm
11:30 AM 64.8°F18.2°C 55.1°F12.8°C 71% 6.0 mph ESE9.7 kmh ESE 13.0 mph20.9 kmh 30.01 in1016.3 mb 0.00 in0.0 mm 0.00 in0.0 mm 0.05 in1.3 mm
11:45 AM 64.9°F18.3°C 54.9°F12.7°C 70% 6.0 mph E9.7 kmh E 15.0 mph24.1 kmh 30.01 in1016.3 mb 0.00 in0.0 mm 0.00 in0.0 mm 0.05 in1.3 mm
12:00 PM 65.3°F18.5°C 55.3°F12.9°C 70% 5.7 mph E9.2 kmh E 9.6 mph15.4 kmh 30.01 in1016.3 mb 0.00 in0.0 mm 0.00 in0.0 mm 0.05 in1.3 mm
12:15 PM 65.5°F18.6°C 55.4°F13.0°C 70% 6.5 mph E10.5 kmh E 10.5 mph16.9 kmh 30.01 in1016.3 mb 0.00 in0.0 mm 0.00 in0.0 mm 0.05 in1.3 mm
12:30 PM 65.5°F18.6°C 55.4°F13.0°C 70% 3.7 mph ESE6.0 kmh ESE 8.5 mph13.7 kmh 30.01 in1016.3 mb 0.00 in0.0 mm 0.00 in0.0 mm 0.05 in1.3 mm
12:45 PM 65.3°F18.5°C 55.3°F12.9°C 70% 5.4 mph ESE8.7 kmh ESE 8.9 mph14.3 kmh 30.01 in1016.3 mb 0.00 in0.0 mm 0.00 in0.0 mm 0.05 in1.3 mm
01:00 PM 65.7°F18.7°C 55.2°F12.9°C 69% 5.2 mph ENE8.4 kmh ENE 9.8 mph15.8 kmh 30.01 in1016.3 mb 0.00 in0.0 mm 0.00 in0.0 mm 0.05 in1.3 mm
01:15 PM 65.7°F18.7°C 55.6°F13.1°C 70% 6.9 mph E11.1 kmh E 12.5 mph20.1 kmh 30.01 in1016.3 mb 0.00 in0.0 mm 0.00 in0.0 mm 0.05 in1.3 mm
01:30 PM 65.3°F18.5°C 55.3°F12.9°C 70% 5.6 mph E9.0 kmh E 9.6 mph15.4 kmh 30.01 in1016.3 mb 0.00 in0.0 mm 0.00 in0.0 mm 0.05 in1.3 mm
01:45 PM 64.9°F18.3°C 55.3°F12.9°C 71% 4.8 mph SE7.7 kmh SE 11.2 mph18.0 kmh 30.01 in1016.3 mb 0.00 in0.0 mm 0.00 in0.0 mm 0.05 in1.3 mm
02:00 PM 64.6°F18.1°C 55.3°F12.9°C 72% 5.8 mph E9.3 kmh E 10.3 mph16.6 kmh 30.01 in1016.3 mb 0.00 in0.0 mm 0.00 in0.0 mm 0.05 in1.3 mm
02:15 PM 64.6°F18.1°C 55.0°F12.8°C 71% 3.7 mph E6.0 kmh E 10.3 mph16.6 kmh 29.98 in1015.2 mb 0.00 in0.0 mm 0.00 in0.0 mm 0.05 in1.3 mm
02:30 PM 64.2°F17.9°C 55.0°F12.8°C 72% 5.0 mph ESE8.0 kmh ESE 10.3 mph16.6 kmh 29.98 in1015.2 mb 0.00 in0.0 mm 0.00 in0.0 mm 0.05 in1.3 mm
02:45 PM 64.0°F17.8°C 55.6°F13.1°C 74% 5.5 mph E8.9 kmh E 11.2 mph18.0 kmh 29.98 in1015.2 mb 0.00 in0.0 mm 0.00 in0.0 mm 0.05 in1.3 mm
03:00 PM 63.5°F17.5°C 54.7°F12.6°C 73% 5.1 mph E8.2 kmh E 11.9 mph19.2 kmh 29.98 in1015.2 mb 0.00 in0.0 mm 0.00 in0.0 mm 0.05 in1.3 mm
03:15 PM 62.6°F17.0°C 54.2°F12.3°C 74% 6.2 mph E10.0 kmh E 12.3 mph19.8 kmh 29.98 in1015.2 mb 0.00 in0.0 mm 0.00 in0.0 mm 0.05 in1.3 mm
03:30 PM 61.9°F16.6°C 54.2°F12.3°C 76% 5.6 mph ESE9.0 kmh ESE 9.8 mph15.8 kmh 29.98 in1015.2 mb 0.00 in0.0 mm 0.00 in0.0 mm 0.05 in1.3 mm
03:45 PM 61.3°F16.3°C 54.4°F12.4°C 78% 6.5 mph ESE10.5 kmh ESE 10.3 mph16.6 kmh 29.98 in1015.2 mb 0.00 in0.0 mm 0.00 in0.0 mm 0.05 in1.3 mm
04:00 PM 60.6°F15.9°C 54.8°F12.7°C 81% 4.9 mph SE7.9 kmh SE 10.3 mph16.6 kmh 29.98 in1015.2 mb 0.00 in0.0 mm 0.00 in0.0 mm 0.05 in1.3 mm
04:15 PM 59.9°F15.5°C 54.4°F12.4°C 82% 4.9 mph ESE7.9 kmh ESE 9.2 mph14.8 kmh 29.98 in1015.2 mb 0.00 in0.0 mm 0.00 in0.0 mm 0.05 in1.3 mm
04:30 PM 59.4°F15.2°C 54.5°F12.5°C 84% 3.8 mph ESE6.1 kmh ESE 9.2 mph14.8 kmh 29.98 in1015.2 mb 0.00 in0.0 mm 0.00 in0.0 mm 0.05 in1.3 mm
04:45 PM 58.6°F14.8°C 54.5°F12.5°C 86% 4.2 mph ESE6.8 kmh ESE 9.6 mph15.4 kmh 29.98 in1015.2 mb 0.00 in0.0 mm 0.00 in0.0 mm 0.05 in1.3 mm
05:00 PM 57.9°F14.4°C 55.0°F12.8°C 90% 3.5 mph ESE5.6 kmh ESE 6.9 mph11.1 kmh 29.98 in1015.2 mb 0.00 in0.0 mm 0.00 in0.0 mm 0.05 in1.3 mm
05:15 PM 57.4°F14.1°C 55.4°F13.0°C 93% 3.4 mph E5.5 kmh E 7.6 mph12.2 kmh 30.01 in1016.3 mb 0.05 in1.3 mm 0.20 in5.1 mm 0.09 in2.3 mm
05:30 PM 56.8°F13.8°C 55.7°F13.2°C 96% 2.6 mph ESE4.2 kmh ESE 5.8 mph9.3 kmh 30.01 in1016.3 mb 0.06 in1.5 mm 0.04 in1.0 mm 0.11 in2.8 mm
05:45 PM 56.3°F13.5°C 55.5°F13.1°C 97% 2.3 mph E3.7 kmh E 7.6 mph12.2 kmh 30.01 in1016.3 mb 0.07 in1.8 mm 0.04 in1.0 mm 0.12 in3.0 mm
06:00 PM 55.9°F13.3°C 55.4°F13.0°C 98% 2.8 mph E4.5 kmh E 6.5 mph10.5 kmh 30.01 in1016.3 mb 0.07 in1.8 mm 0.00 in0.0 mm 0.12 in3.0 mm
06:15 PM 55.8°F13.2°C 55.2°F12.9°C 98% 3.6 mph E5.8 kmh E 5.8 mph9.3 kmh 30.01 in1016.3 mb 0.02 in0.5 mm 0.00 in0.0 mm 0.12 in3.0 mm
06:30 PM 55.6°F13.1°C 55.3°F12.9°C 99% 2.8 mph ESE4.5 kmh ESE 7.2 mph11.6 kmh 30.01 in1016.3 mb 0.01 in0.3 mm 0.00 in0.0 mm 0.12 in3.0 mm
06:45 PM 55.4°F13.0°C 55.1°F12.8°C 99% 2.7 mph E4.3 kmh E 6.3 mph10.1 kmh 30.01 in1016.3 mb 0.00 in0.0 mm 0.00 in0.0 mm 0.12 in3.0 mm
07:00 PM 55.2°F12.9°C 54.9°F12.7°C 99% 2.4 mph E3.9 kmh E 5.6 mph9.0 kmh 30.01 in1016.3 mb 0.00 in0.0 mm 0.00 in0.0 mm 0.12 in3.0 mm
07:15 PM 55.2°F12.9°C 54.9°F12.7°C 99% 2.0 mph ESE3.2 kmh ESE 4.9 mph7.9 kmh 30.04 in1017.3 mb 0.00 in0.0 mm 0.00 in0.0 mm 0.12 in3.0 mm
07:30 PM 55.2°F12.9°C 54.9°F12.7°C 99% 2.0 mph E3.2 kmh E 6.9 mph11.1 kmh 30.04 in1017.3 mb 0.00 in0.0 mm 0.00 in0.0 mm 0.12 in3.0 mm
07:45 PM 55.2°F12.9°C 54.9°F12.7°C 99% 2.1 mph E3.4 kmh E 4.9 mph7.9 kmh 30.04 in1017.3 mb 0.00 in0.0 mm 0.00 in0.0 mm 0.12 in3.0 mm
08:00 PM 55.2°F12.9°C 54.9°F12.7°C 99% 1.9 mph SE3.1 kmh SE 5.6 mph9.0 kmh 30.04 in1017.3 mb 0.00 in0.0 mm 0.00 in0.0 mm 0.12 in3.0 mm
08:15 PM 55.2°F12.9°C 54.9°F12.7°C 99% 2.1 mph E3.4 kmh E 5.6 mph9.0 kmh 30.04 in1017.3 mb 0.00 in0.0 mm 0.00 in0.0 mm 0.12 in3.0 mm
08:30 PM 55.2°F12.9°C 54.9°F12.7°C 99% 0.9 mph ESE1.4 kmh ESE 5.1 mph8.2 kmh 30.04 in1017.3 mb 0.02 in0.5 mm 0.08 in2.0 mm 0.13 in3.3 mm
08:45 PM 55.0°F12.8°C 54.8°F12.7°C 99% 1.0 mph E1.6 kmh E 5.1 mph8.2 kmh 30.04 in1017.3 mb 0.02 in0.5 mm 0.00 in0.0 mm 0.13 in3.3 mm
09:00 PM 55.0°F12.8°C 54.8°F12.7°C 99% 0.4 mph E0.6 kmh E 2.2 mph3.5 kmh 30.04 in1017.3 mb 0.02 in0.5 mm 0.00 in0.0 mm 0.14 in3.6 mm
09:15 PM 55.0°F12.8°C 55.0°F12.8°C 100% 1.9 mph SE3.1 kmh SE 6.9 mph11.1 kmh 30.07 in1018.3 mb 0.04 in1.0 mm 0.08 in2.0 mm 0.16 in4.1 mm
09:30 PM 55.0°F12.8°C 55.0°F12.8°C 100% 0.6 mph SE1.0 kmh SE 6.9 mph11.1 kmh 30.07 in1018.3 mb 0.03 in0.8 mm 0.00 in0.0 mm 0.17 in4.3 mm
09:45 PM 54.9°F12.7°C 54.9°F12.7°C 100% 1.9 mph E3.1 kmh E 5.1 mph8.2 kmh 30.07 in1018.3 mb 0.03 in0.8 mm 0.00 in0.0 mm 0.17 in4.3 mm
10:00 PM 54.7°F12.6°C 54.7°F12.6°C 100% 2.3 mph ESE3.7 kmh ESE 5.1 mph8.2 kmh 30.07 in1018.3 mb 0.04 in1.0 mm 0.01 in0.3 mm 0.18 in4.6 mm
10:15 PM 54.5°F12.5°C 54.5°F12.5°C 100% 3.8 mph E6.1 kmh E 8.5 mph13.7 kmh 30.07 in1018.3 mb 0.04 in1.0 mm 0.00 in0.0 mm 0.20 in5.1 mm
10:30 PM 54.3°F12.4°C 54.3°F12.4°C 100% 2.0 mph SE3.2 kmh SE 6.9 mph11.1 kmh 30.07 in1018.3 mb 0.06 in1.5 mm 0.08 in2.0 mm 0.23 in5.8 mm
10:45 PM 54.3°F12.4°C 54.3°F12.4°C 100% 2.0 mph E3.2 kmh E 6.9 mph11.1 kmh 30.07 in1018.3 mb 0.06 in1.5 mm 0.00 in0.0 mm 0.23 in5.8 mm
11:00 PM 54.1°F12.3°C 54.1°F12.3°C 100% 2.5 mph E4.0 kmh E 5.1 mph8.2 kmh 30.07 in1018.3 mb 0.06 in1.5 mm 0.00 in0.0 mm 0.19 in4.8 mm
11:15 PM 54.0°F12.2°C 54.0°F12.2°C 100% 2.6 mph ESE4.2 kmh ESE 5.8 mph9.3 kmh 30.07 in1018.3 mb 0.05 in1.3 mm 0.00 in0.0 mm 0.19 in4.8 mm
11:30 PM 53.8°F12.1°C 53.8°F12.1°C 100% 2.3 mph E3.7 kmh E 4.9 mph7.9 kmh 30.07 in1018.3 mb 0.02 in0.5 mm 0.00 in0.0 mm 0.01 in0.3 mm
11:45 PM 53.8°F12.1°C 53.8°F12.1°C 100% 1.9 mph E3.1 kmh E 5.1 mph8.2 kmh 30.07 in1018.3 mb 0.02 in0.5 mm 0.00 in0.0 mm 0.01 in0.3 mm